Погода Патеенкина неделю

Витебская область, Белоруссия

22 - 28 мая
  • 22мая
    Сегодня
    +13°
    +24°
    Практически безоблачно
    ВремяПогодаТемператураВлажностьДавлениеВетер, м/сВероятность осадков
    00:00Практически безоблачно+14°C86 %751 мм2.7 м/с2 %
    03:00Небольшая облачность+13°C79 %751 мм3.9 м/с2 %
    06:00Практически безоблачно+11°C69 %751 мм4.0 м/с2 %
    09:00Ясно и безоблачно+16°C60 %752 мм4.3 м/с2 %
    12:00Ясно и безоблачно+22°C59 %752 мм4.2 м/с2 %
    15:00Практически безоблачно+23°C54 %751 мм5.2 м/с7 %
    18:00Облачно с прояснениями+21°C77 %751 мм1.6 м/с40 %
    21:00Небольшая облачность+18°C89 %751 мм3.5 м/с29 %
  • 23мая
    Четверг
    +12°
    +23°
    Практически безоблачно
    ВремяПогодаТемператураВлажностьДавлениеВетер, м/сВероятность осадков
    00:00Ясно и безоблачно+15°C93 %752 мм2.5 м/с2 %
    03:00Ясно и безоблачно+14°C94 %752 мм3.4 м/с2 %
    06:00Ясно и безоблачно+13°C94 %753 мм4.4 м/с2 %
    09:00Небольшая облачность+18°C81 %754 мм5.5 м/с2 %
    12:00Ясно и безоблачно+22°C64 %754 мм5.2 м/с8 %
    15:00Практически безоблачно+23°C54 %754 мм6.0 м/с14 %
    18:00Небольшая облачность+22°C53 %754 мм5.6 м/с19 %
    21:00Практически безоблачно+19°C61 %754 мм3.8 м/с4 %
  • 24мая
    Пятница
    +11°
    +24°
    Ясно и безоблачно
    ВремяПогодаТемператураВлажностьДавлениеВетер, м/сВероятность осадков
    00:00Ясно и безоблачно+16°C62 %755 мм4.9 м/с2 %
    03:00Ясно и безоблачно+14°C68 %756 мм4.6 м/с2 %
    06:00Ясно и безоблачно+13°C73 %757 мм4.6 м/с2 %
    09:00Ясно и безоблачно+17°C64 %757 мм4.8 м/с2 %
    12:00Ясно и безоблачно+22°C54 %757 мм4.7 м/с2 %
    15:00Ясно и безоблачно+23°C51 %757 мм4.8 м/с8 %
    18:00Ясно и безоблачно+23°C51 %756 мм4.8 м/с12 %
    21:00Ясно и безоблачно+19°C64 %756 мм3.4 м/с5 %
  • 25мая
    Суббота
    +12°
    +25°
    Ясно и безоблачно
    ВремяПогодаТемператураВлажностьДавлениеВетер, м/сВероятность осадков
    00:00Ясно и безоблачно+15°C70 %756 мм3.8 м/с2 %
    03:00Ясно и безоблачно+13°C76 %756 мм3.4 м/с2 %
    06:00Ясно и безоблачно+12°C79 %756 мм3.5 м/с3 %
    09:00Ясно и безоблачно+18°C68 %756 мм3.3 м/с4 %
    12:00Практически безоблачно+23°C53 %756 мм3.9 м/с10 %
    15:00Ясно и безоблачно+24°C44 %755 мм4.3 м/с23 %
    18:00Облачно с прояснениями+25°C43 %754 мм4.1 м/с38 %
    21:00Облачно с прояснениями+19°C81 %754 мм2.1 м/с18 %
  • 26мая
    Воскресенье
    +11°
    +25°
    Ясно и безоблачно
    ВремяПогодаТемператураВлажностьДавлениеВетер, м/сВероятность осадков
    00:00Облачно с прояснениями+15°C78 %754 мм2.1 м/с10 %
    03:00Облачно с прояснениями+14°C78 %755 мм2.6 м/с3 %
    06:00Практически безоблачно+13°C72 %755 мм2.2 м/с6 %
    09:00Небольшая облачность+18°C58 %756 мм1.5 м/с5 %
    12:00Практически безоблачно+24°C44 %756 мм3.1 м/с8 %
    15:00Ясно и безоблачно+25°C38 %755 мм3.1 м/с16 %
    18:00Ясно и безоблачно+25°C40 %754 мм2.3 м/с22 %
    21:00Ясно и безоблачно+19°C67 %755 мм2.1 м/с7 %
Мы используем cookies
Соглашаюсь